createdAt,value
2018-11-13T00:02:13.320Z,14.70
2018-11-13T00:07:22.784Z,17.60
2018-11-13T00:12:32.124Z,16.27
2018-11-13T00:17:36.043Z,19.40
2018-11-13T00:22:39.829Z,19.00
2018-11-13T00:27:49.373Z,18.43
2018-11-13T00:32:58.900Z,19.03
2018-11-13T00:38:04.815Z,17.30
2018-11-13T00:43:14.248Z,17.43
2018-11-13T00:48:23.640Z,12.83
2018-11-13T00:53:33.194Z,10.13
2018-11-13T00:58:42.492Z,18.33
2018-11-13T01:03:53.077Z,17.23
2018-11-13T01:08:56.820Z,15.43
2018-11-13T01:14:06.869Z,19.27
2018-11-13T01:19:16.212Z,18.40
2018-11-13T01:24:25.710Z,18.67
2018-11-13T01:29:35.130Z,18.50
2018-11-13T01:34:44.448Z,18.77
2018-11-13T01:39:54.463Z,11.30
2018-11-13T01:45:04.214Z,17.67
2018-11-13T01:50:13.190Z,17.30
2018-11-13T01:55:22.825Z,17.53
2018-11-13T02:00:32.156Z,18.23
2018-11-13T02:05:41.684Z,18.13
2018-11-13T02:10:51.211Z,17.10
2018-11-13T02:16:00.632Z,17.90
2018-11-13T02:21:10.221Z,17.57
2018-11-13T02:26:19.584Z,18.37
2018-11-13T02:31:28.998Z,16.97
2018-11-13T02:36:38.659Z,17.47
2018-11-13T02:41:48.313Z,16.00
2018-11-13T02:46:57.715Z,13.47
2018-11-13T02:52:07.069Z,12.47
2018-11-13T02:57:16.427Z,11.13
2018-11-13T03:02:25.757Z,9.73
2018-11-13T03:07:35.176Z,8.33
2018-11-13T03:12:44.730Z,8.97
2018-11-13T03:17:54.215Z,8.37
2018-11-13T03:23:03.612Z,8.27
2018-11-13T03:28:13.188Z,7.03
2018-11-13T03:33:22.540Z,6.30
2018-11-13T03:38:32.124Z,5.80
2018-11-13T03:43:41.628Z,4.43
2018-11-13T03:48:50.983Z,4.23
2018-11-13T03:54:00.582Z,4.70
2018-11-13T03:59:09.905Z,4.07
2018-11-13T04:04:19.284Z,4.13
2018-11-13T04:09:23.052Z,3.40
2018-11-13T04:14:32.467Z,2.80
2018-11-13T04:19:41.812Z,2.70
2018-11-13T04:24:51.432Z,2.80
2018-11-13T04:30:00.887Z,2.40
2018-11-13T04:35:11.752Z,2.90
2018-11-13T04:40:21.522Z,2.60
2018-11-13T04:45:30.969Z,2.67
2018-11-13T04:50:40.480Z,2.70
2018-11-13T04:55:49.846Z,2.80
2018-11-13T05:00:59.198Z,2.93
2018-11-13T05:06:08.710Z,3.47
2018-11-13T05:11:18.053Z,3.20
2018-11-13T05:16:27.402Z,3.30
2018-11-13T05:21:36.757Z,2.83
2018-11-13T05:26:46.096Z,3.30
2018-11-13T05:31:55.489Z,3.30
2018-11-13T05:37:04.888Z,4.00
2018-11-13T05:42:12.992Z,3.93
2018-11-13T05:47:22.506Z,3.83
2018-11-13T05:52:32.044Z,3.87
2018-11-13T05:57:41.475Z,3.83
2018-11-13T06:02:50.984Z,3.73
2018-11-13T06:08:00.532Z,3.80
2018-11-13T06:13:10.480Z,5.23
2018-11-13T06:18:19.934Z,3.47
2018-11-13T06:23:29.540Z,3.60
2018-11-13T06:28:39.809Z,3.80
2018-11-13T06:33:49.234Z,3.63
2018-11-13T06:38:58.755Z,3.40
2018-11-13T06:44:08.463Z,3.33
2018-11-13T06:49:18.046Z,3.20
2018-11-13T06:54:39.024Z,2.73
2018-11-13T06:59:48.656Z,3.03
2018-11-13T07:04:58.124Z,3.53
2018-11-13T07:10:09.107Z,3.53
2018-11-13T07:15:20.131Z,4.37
2018-11-13T07:20:30.845Z,3.77
2018-11-13T07:25:40.419Z,5.20
2018-11-13T07:30:49.981Z,5.30
2018-11-13T07:35:59.350Z,4.53
2018-11-13T07:41:09.110Z,4.70
2018-11-13T07:46:18.420Z,4.53
2018-11-13T07:51:28.077Z,5.37
2018-11-13T07:56:37.909Z,6.10
2018-11-13T08:01:47.372Z,5.10
2018-11-13T08:06:56.913Z,5.40
2018-11-13T08:12:06.312Z,6.13
2018-11-13T08:17:15.929Z,6.60
2018-11-13T08:22:25.628Z,5.30
2018-11-13T08:27:35.118Z,8.20
2018-11-13T08:32:45.393Z,8.13
2018-11-13T08:37:54.897Z,7.63
2018-11-13T08:43:04.293Z,6.30
2018-11-13T08:48:14.037Z,7.00
2018-11-13T08:53:23.800Z,5.73
2018-11-13T08:58:33.249Z,5.13
2018-11-13T09:03:43.031Z,4.93
2018-11-13T09:08:52.526Z,4.33
2018-11-13T09:14:02.284Z,4.60
2018-11-13T09:19:12.038Z,4.00
2018-11-13T09:24:21.528Z,4.10
2018-11-13T09:29:31.085Z,3.63
2018-11-13T09:34:40.733Z,3.57
2018-11-13T09:39:50.318Z,3.37
2018-11-13T09:44:59.995Z,2.80
2018-11-13T09:50:12.332Z,3.33
2018-11-13T09:55:22.856Z,3.43
2018-11-13T10:00:32.526Z,3.07
2018-11-13T10:05:42.102Z,2.87
2018-11-13T10:10:51.508Z,2.93
2018-11-13T10:16:01.025Z,2.80
2018-11-13T10:21:10.484Z,2.67
2018-11-13T10:26:20.061Z,3.00
2018-11-13T10:31:29.820Z,2.50
2018-11-13T10:36:39.201Z,2.93
2018-11-13T10:41:48.745Z,2.27
2018-11-13T10:46:58.117Z,2.57
2018-11-13T10:52:07.982Z,2.03
2018-11-13T10:57:17.472Z,1.83
2018-11-13T11:02:32.298Z,2.10
2018-11-13T11:07:41.947Z,1.73
2018-11-13T11:12:51.535Z,2.20
2018-11-13T11:18:01.075Z,2.13
2018-11-13T11:23:10.854Z,2.07
2018-11-13T11:28:22.237Z,2.47
2018-11-13T11:33:31.796Z,1.87
2018-11-13T11:38:41.425Z,1.63
2018-11-13T11:43:51.164Z,2.20
2018-11-13T11:49:00.777Z,1.83
2018-11-13T11:54:10.441Z,2.00
2018-11-13T11:59:20.125Z,2.23
2018-11-13T12:04:30.235Z,1.93
2018-11-13T12:09:34.959Z,2.07
2018-11-13T12:14:46.194Z,2.00
2018-11-13T12:20:00.213Z,2.00
2018-11-13T12:25:13.604Z,1.60
2018-11-13T12:30:24.920Z,1.50
2018-11-13T12:35:34.573Z,1.40
2018-11-13T12:40:45.146Z,1.50
2018-11-13T12:45:55.909Z,2.03
2018-11-13T12:51:06.764Z,1.70
2018-11-13T12:56:16.620Z,1.33
2018-11-13T13:01:26.186Z,1.60
2018-11-13T13:06:37.301Z,1.43
2018-11-13T13:11:46.845Z,1.87
2018-11-13T13:16:56.412Z,1.70
2018-11-13T13:22:09.344Z,2.13
2018-11-13T13:27:19.150Z,1.50
2018-11-13T13:32:31.176Z,1.37
2018-11-13T13:37:42.569Z,1.33
2018-11-13T13:42:52.254Z,1.63
2018-11-13T13:48:01.979Z,1.90
2018-11-13T13:53:14.578Z,1.80
2018-11-13T13:58:24.893Z,1.43
2018-11-13T14:03:34.859Z,1.97
2018-11-13T14:08:47.851Z,1.73
2018-11-13T14:13:57.552Z,1.53
2018-11-13T14:19:09.624Z,1.53
2018-11-13T14:24:19.434Z,1.90
2018-11-13T14:29:29.125Z,1.90
2018-11-13T14:34:41.574Z,1.70
2018-11-13T14:39:51.453Z,1.70
2018-11-13T14:45:03.587Z,2.03
2018-11-13T14:50:15.606Z,1.93
2018-11-13T14:55:34.313Z,2.03
2018-11-13T15:00:44.149Z,1.80
2018-11-13T15:05:48.200Z,2.30
2018-11-13T15:11:01.478Z,2.20
2018-11-13T15:16:11.239Z,2.13
2018-11-13T15:21:20.947Z,1.90
2018-11-13T15:26:31.314Z,2.53
2018-11-13T15:31:40.828Z,2.30
2018-11-13T15:36:50.625Z,2.13
2018-11-13T15:42:00.257Z,2.63
2018-11-13T15:47:09.950Z,2.83
2018-11-13T15:52:20.021Z,2.57
2018-11-13T15:57:29.473Z,2.67
2018-11-13T16:02:40.529Z,2.87
2018-11-13T16:07:51.760Z,2.83
2018-11-13T16:13:02.303Z,2.83
2018-11-13T16:18:22.035Z,2.67
2018-11-13T16:23:31.742Z,2.53
2018-11-13T16:28:41.353Z,2.30
2018-11-13T16:33:50.945Z,2.67
2018-11-13T16:39:00.303Z,2.70
2018-11-13T16:44:09.788Z,2.43
2018-11-13T16:49:19.136Z,2.73
2018-11-13T16:54:32.771Z,2.53
2018-11-13T16:59:42.286Z,2.97
2018-11-13T17:04:51.659Z,2.60
2018-11-13T17:10:01.066Z,3.10
2018-11-13T17:15:12.427Z,3.10
2018-11-13T17:20:21.922Z,3.30
2018-11-13T17:25:33.022Z,2.30
2018-11-13T17:30:42.483Z,3.60
2018-11-13T17:35:51.883Z,2.83
2018-11-13T17:41:01.240Z,3.10
2018-11-13T17:46:05.067Z,3.10
2018-11-13T17:51:14.538Z,2.70
2018-11-13T17:56:23.876Z,3.80
2018-11-13T18:01:27.623Z,4.97
2018-11-13T18:06:37.019Z,4.13
2018-11-13T18:11:46.434Z,5.10
2018-11-13T18:16:56.075Z,4.47
2018-11-13T18:22:05.720Z,4.63
2018-11-13T18:27:15.210Z,3.63
2018-11-13T18:32:24.845Z,4.20
2018-11-13T18:37:33.997Z,4.97
2018-11-13T18:42:44.754Z,4.33
2018-11-13T18:47:54.593Z,4.60
2018-11-13T18:53:04.007Z,3.87
2018-11-13T18:58:13.420Z,4.00
2018-11-13T19:03:22.902Z,4.00
2018-11-13T19:08:32.470Z,4.90
2018-11-13T19:13:42.200Z,4.30
2018-11-13T19:18:51.385Z,5.23
2018-11-13T19:24:00.596Z,6.00
2018-11-13T19:29:04.391Z,5.20
2018-11-13T19:34:14.195Z,4.70
2018-11-13T19:39:23.755Z,4.60
2018-11-13T19:44:33.356Z,4.27
2018-11-13T19:49:37.469Z,4.43
2018-11-13T19:54:41.207Z,5.43
2018-11-13T19:59:45.227Z,4.67
2018-11-13T20:04:49.087Z,4.70
2018-11-13T20:09:53.135Z,4.27
2018-11-13T20:15:02.698Z,4.37
2018-11-13T20:20:14.622Z,5.00
2018-11-13T20:25:26.152Z,4.80
2018-11-13T20:30:39.240Z,3.90
2018-11-13T20:35:43.032Z,4.33
2018-11-13T20:40:46.819Z,4.87
2018-11-13T20:45:50.680Z,5.57
2018-11-13T20:50:54.829Z,4.77
2018-11-13T20:55:58.715Z,5.10
2018-11-13T21:01:02.511Z,5.63
2018-11-13T21:06:06.324Z,5.13
2018-11-13T21:11:10.282Z,5.70
2018-11-13T21:16:14.153Z,4.43
2018-11-13T21:21:17.921Z,4.80
2018-11-13T21:26:21.710Z,4.60
2018-11-13T21:31:25.518Z,4.80
2018-11-13T21:36:29.297Z,5.50
2018-11-13T21:41:33.064Z,4.63
2018-11-13T21:46:42.573Z,5.03
2018-11-13T21:51:52.285Z,3.97
2018-11-13T21:57:01.687Z,4.00
2018-11-13T22:02:11.392Z,4.20
2018-11-13T22:07:20.876Z,5.03
2018-11-13T22:12:30.632Z,4.50
2018-11-13T22:17:40.166Z,5.07
2018-11-13T22:22:51.270Z,4.33
2018-11-13T22:28:00.475Z,4.03
2018-11-13T22:33:10.076Z,3.50
2018-11-13T22:38:14.021Z,3.60
2018-11-13T22:43:19.405Z,4.13
2018-11-13T22:48:28.916Z,5.00
2018-11-13T22:53:38.592Z,3.90
2018-11-13T22:58:45.053Z,3.90
2018-11-13T23:03:54.532Z,4.77
2018-11-13T23:09:06.788Z,4.47
2018-11-13T23:14:16.158Z,4.57
2018-11-13T23:19:25.597Z,4.27
2018-11-13T23:24:35.284Z,4.77
2018-11-13T23:29:44.794Z,5.00
2018-11-13T23:34:52.984Z,4.43
2018-11-13T23:39:56.838Z,4.30
2018-11-13T23:45:00.633Z,4.83
2018-11-13T23:50:10.600Z,4.40
2018-11-13T23:55:20.003Z,4.73
